Time;durP1;ratioP1;P1;durP2;ratioP2;P2;SDS_P1;SDS_P2;PMS_P1;PMS_P2;Temp;Humidity;BMP_temperature;BMP_pressure;BME280_temperature;BME280_humidity;BME280_pressure;Samples;Min_cycle;Max_cycle;Signal;HPM_P1;HPM_P2
2023/07/27 11:47:53;;;;;;;2.50;2.40;;;16.40;99.90;;;;;;5162858;27;20536;-80
2023/07/27 11:50:20;;;;;;;2.70;2.50;;;16.20;99.90;;;;;;5163610;27;20182;-81
2023/07/27 11:52:49;;;;;;;2.40;2.20;;;16.30;99.90;;;;;;5159142;27;20175;-81
2023/07/27 11:55:15;;;;;;;2.92;2.63;;;16.40;99.90;;;;;;5154929;27;20175;-81
2023/07/27 11:57:41;;;;;;;2.65;2.47;;;16.40;99.90;;;;;;5154903;27;20213;-81
2023/07/27 12:00:14;;;;;;;2.88;2.67;;;16.40;99.90;;;;;;5159670;27;20167;-81
2023/07/27 12:02:50;;;;;;;3.22;2.60;;;16.40;99.90;;;;;;5163211;27;20260;-81
2023/07/27 12:05:19;;;;;;;2.45;2.30;;;16.40;99.90;;;;;;5156810;27;20202;-81
2023/07/27 12:07:45;;;;;;;2.58;2.38;;;16.40;99.90;;;;;;5156179;27;20199;-80
2023/07/27 12:10:19;;;;;;;2.50;2.30;;;16.40;99.90;;;;;;5155367;27;20258;-80
2023/07/27 12:12:53;;;;;;;3.05;2.40;;;16.40;99.90;;;;;;5155673;27;20261;-81
2023/07/27 12:15:30;;;;;;;2.85;2.35;;;16.40;99.90;;;;;;5156211;27;20202;-81
2023/07/27 12:17:57;;;;;;;3.63;2.28;;;16.40;99.90;;;;;;5155457;27;20174;-81
2023/07/27 12:20:25;;;;;;;2.78;2.58;;;16.40;99.90;;;;;;5157270;27;20222;-81
2023/07/27 12:22:50;;;;;;;2.38;2.28;;;16.30;99.90;;;;;;5157648;27;20174;-82
2023/07/27 12:25:16;;;;;;;2.85;2.40;;;16.30;99.90;;;;;;5157325;27;20163;-82
2023/07/27 12:27:42;;;;;;;3.05;2.47;;;16.40;99.90;;;;;;5157316;27;20222;-81
2023/07/27 12:30:09;;;;;;;4.47;2.53;;;16.50;99.90;;;;;;5157099;27;20186;-81
2023/07/27 12:32:35;;;;;;;3.38;2.70;;;16.60;99.90;;;;;;5156476;27;20231;-81
2023/07/27 12:35:02;;;;;;;2.80;2.60;;;16.70;99.90;;;;;;5153755;27;20175;-81
2023/07/27 12:37:27;;;;;;;3.03;2.70;;;16.60;99.90;;;;;;5153591;27;20206;-81
2023/07/27 12:39:53;;;;;;;3.22;2.78;;;16.70;99.90;;;;;;5153583;27;20182;-81
2023/07/27 12:42:19;;;;;;;2.70;2.50;;;16.70;99.90;;;;;;5153832;27;20185;-81
2023/07/27 12:44:44;;;;;;;3.17;2.53;;;16.80;99.90;;;;;;5154088;27;20208;-81
2023/07/27 12:47:10;;;;;;;5.63;2.83;;;16.80;99.90;;;;;;5152513;27;20227;-81
2023/07/27 12:49:35;;;;;;;2.50;2.22;;;16.90;99.90;;;;;;5154504;27;20270;-81
2023/07/27 12:52:01;;;;;;;2.55;2.42;;;16.90;99.90;;;;;;5153932;27;20265;-81
2023/07/27 12:54:28;;;;;;;2.65;2.45;;;16.90;99.90;;;;;;5154427;27;20304;-79
2023/07/27 12:56:53;;;;;;;2.45;2.20;;;17.00;99.90;;;;;;5153308;27;20211;-81
2023/07/27 12:59:19;;;;;;;2.75;2.20;;;17.00;99.90;;;;;;5140332;27;20172;-81
2023/07/27 13:01:44;;;;;;;2.42;2.22;;;17.00;99.90;;;;;;5143428;27;20159;-81
2023/07/27 13:04:10;;;;;;;2.40;2.00;;;17.00;99.90;;;;;;5142816;27;20550;-81
2023/07/27 13:06:35;;;;;;;2.33;2.10;;;17.10;99.90;;;;;;5143396;27;20198;-81
2023/07/27 13:09:02;;;;;;;2.92;2.20;;;17.10;99.90;;;;;;5144049;27;20179;-81
2023/07/27 13:11:27;;;;;;;2.00;1.90;;;17.10;99.90;;;;;;5144812;27;20175;-81
2023/07/27 13:13:53;;;;;;;1.90;1.80;;;17.10;99.90;;;;;;5142069;27;20187;-81
2023/07/27 13:16:18;;;;;;;3.63;2.10;;;17.00;99.90;;;;;;5141638;27;20211;-81
2023/07/27 13:18:45;;;;;;;3.38;2.10;;;17.00;99.90;;;;;;5141362;27;20195;-81
2023/07/27 13:21:10;;;;;;;2.20;2.00;;;16.90;99.90;;;;;;5139599;27;20167;-81
2023/07/27 13:23:36;;;;;;;2.53;2.33;;;17.00;99.90;;;;;;5138231;27;20171;-81
2023/07/27 13:26:06;;;;;;;3.85;2.15;;;16.90;99.90;;;;;;5141030;27;20199;-81
2023/07/27 13:28:31;;;;;;;2.30;2.10;;;17.00;99.90;;;;;;5146168;27;20155;-81
2023/07/27 13:30:59;;;;;;;2.10;1.90;;;17.00;99.90;;;;;;5143938;27;20176;-81
2023/07/27 13:33:25;;;;;;;2.38;2.17;;;17.00;99.90;;;;;;5145134;27;20204;-81
2023/07/27 13:35:50;;;;;;;1.90;1.80;;;17.10;99.90;;;;;;5141004;27;20294;-81
2023/07/27 13:38:16;;;;;;;2.63;2.00;;;17.10;99.90;;;;;;5140772;27;20156;-81
2023/07/27 13:40:42;;;;;;;2.30;2.10;;;17.10;99.90;;;;;;5137384;27;20159;-81
2023/07/27 13:43:07;;;;;;;2.35;2.15;;;17.10;99.90;;;;;;5139084;27;20224;-81
2023/07/27 13:45:33;;;;;;;2.33;2.13;;;17.10;99.90;;;;;;5138718;27;20254;-81
2023/07/27 13:47:58;;;;;;;2.88;2.20;;;17.10;99.90;;;;;;5139689;27;20174;-81
2023/07/27 13:50:24;;;;;;;2.35;2.17;;;17.20;99.90;;;;;;5138933;27;20159;-81
2023/07/27 13:52:50;;;;;;;2.72;2.40;;;17.30;99.90;;;;;;5139444;27;20190;-81
2023/07/27 13:55:15;;;;;;;3.53;2.30;;;17.30;99.90;;;;;;5140360;27;20754;-81
2023/07/27 13:57:41;;;;;;;2.75;2.55;;;17.40;99.90;;;;;;5140075;27;20203;-81
2023/07/27 14:00:07;;;;;;;2.35;2.20;;;17.40;99.90;;;;;;5138204;27;20176;-81
2023/07/27 14:02:33;;;;;;;2.80;2.30;;;17.50;99.90;;;;;;5140388;27;20201;-81
2023/07/27 14:04:59;;;;;;;2.45;2.25;;;17.60;99.90;;;;;;5143432;27;20171;-81
2023/07/27 14:07:25;;;;;;;2.28;2.17;;;17.60;99.90;;;;;;5145286;27;20196;-81
2023/07/27 14:09:52;;;;;;;2.35;2.25;;;17.90;99.90;;;;;;5139651;27;20183;-81
2023/07/27 14:12:18;;;;;;;3.40;2.33;;;18.10;99.90;;;;;;5138836;27;20171;-82
2023/07/27 14:14:44;;;;;;;2.70;2.50;;;18.10;99.90;;;;;;5139387;27;20228;-82
2023/07/27 14:17:09;;;;;;;2.40;2.20;;;18.00;99.90;;;;;;5142105;27;20336;-81
2023/07/27 14:19:35;;;;;;;2.53;2.33;;;17.80;99.90;;;;;;5144039;27;20200;-81
2023/07/27 14:22:00;;;;;;;2.47;2.28;;;17.70;99.90;;;;;;5144262;27;20168;-81
2023/07/27 14:24:26;;;;;;;2.55;2.35;;;17.60;99.90;;;;;;5145766;27;20164;-81
2023/07/27 14:26:52;;;;;;;2.83;2.30;;;17.70;99.90;;;;;;5145710;27;20206;-79
2023/07/27 14:29:20;;;;;;;2.30;2.10;;;17.80;99.90;;;;;;5145195;27;20176;-83
2023/07/27 14:31:46;;;;;;;2.47;2.25;;;17.90;99.90;;;;;;5143000;27;20172;-79
2023/07/27 14:34:13;;;;;;;1.90;1.80;;;17.80;99.90;;;;;;5142218;27;20171;-81
2023/07/27 14:36:39;;;;;;;2.30;2.20;;;17.90;99.90;;;;;;5137928;27;20211;-81
2023/07/27 14:39:05;;;;;;;2.20;2.10;;;18.00;99.90;;;;;;5136520;27;20171;-81
2023/07/27 14:41:31;;;;;;;2.00;1.90;;;18.10;99.90;;;;;;5136707;27;20179;-81
2023/07/27 14:43:57;;;;;;;2.25;2.00;;;18.20;99.90;;;;;;5137504;27;20179;-81
2023/07/27 14:46:26;;;;;;;2.10;2.00;;;18.10;99.90;;;;;;5136392;27;20278;-80
2023/07/27 14:48:51;;;;;;;3.30;2.17;;;18.00;99.90;;;;;;5137018;27;20175;-81
2023/07/27 14:51:17;;;;;;;2.60;2.40;;;17.80;99.90;;;;;;5135783;27;20197;-81
2023/07/27 14:53:43;;;;;;;3.35;3.10;;;17.80;99.90;;;;;;5136245;27;20217;-80
2023/07/27 14:56:08;;;;;;;3.25;2.95;;;17.60;99.90;;;;;;5136508;27;20240;-79
2023/07/27 14:58:34;;;;;;;3.30;3.00;;;17.50;99.90;;;;;;5136916;27;20255;-80
2023/07/27 15:01:00;;;;;;;2.95;2.72;;;17.40;99.90;;;;;;5136642;27;20220;-79
2023/07/27 15:03:25;;;;;;;2.92;2.72;;;17.30;99.90;;;;;;5137361;27;20183;-80
2023/07/27 15:05:57;;;;;;;2.60;2.50;;;17.30;99.90;;;;;;5135831;27;20206;-78
2023/07/27 15:08:23;;;;;;;2.83;2.63;;;17.20;99.90;;;;;;5135719;27;20171;-81
2023/07/27 15:10:49;;;;;;;2.70;2.50;;;17.20;99.90;;;;;;5136802;27;20179;-81
2023/07/27 15:13:14;;;;;;;3.15;2.95;;;17.30;99.90;;;;;;5136801;27;20167;-80
2023/07/27 15:15:43;;;;;;;2.35;2.25;;;17.30;99.90;;;;;;5153997;27;20266;-80
2023/07/27 15:18:10;;;;;;;2.75;2.30;;;17.40;99.90;;;;;;5153775;27;20660;-79
2023/07/27 15:20:39;;;;;;;2.38;2.17;;;17.50;99.90;;;;;;5137388;27;20182;-80
2023/07/27 15:23:07;;;;;;;2.63;2.08;;;17.60;99.90;;;;;;5136285;27;20171;-80
2023/07/27 15:25:33;;;;;;;3.17;2.28;;;17.60;99.90;;;;;;5136585;27;20202;-80
2023/07/27 15:28:04;;;;;;;1.90;1.80;;;17.60;99.90;;;;;;5153741;27;20178;-79
2023/07/27 15:30:31;;;;;;;2.13;1.92;;;17.60;99.90;;;;;;5154572;27;20159;-79
2023/07/27 15:32:57;;;;;;;2.13;2.03;;;17.70;99.90;;;;;;5137596;27;20171;-79
2023/07/27 15:35:23;;;;;;;2.05;1.95;;;17.60;99.90;;;;;;5137150;27;20172;-79
2023/07/27 15:37:49;;;;;;;2.10;2.00;;;17.50;99.90;;;;;;5153672;27;20209;-79
2023/07/27 15:40:43;;;;;;;2.92;2.00;;;17.50;99.90;;;;;;5154241;27;20253;-80
2023/07/27 15:43:09;;;;;;;2.20;2.00;;;17.50;99.90;;;;;;5143520;27;20203;-80
2023/07/27 15:45:34;;;;;;;2.85;2.20;;;17.50;99.90;;;;;;5160429;27;20249;-80
2023/07/27 15:48:00;;;;;;;3.28;1.85;;;17.40;99.90;;;;;;5160443;27;20175;-79
2023/07/27 15:50:25;;;;;;;2.53;2.28;;;17.50;99.90;;;;;;5158671;27;20178;-80
2023/07/27 15:52:51;;;;;;;2.20;2.00;;;17.50;99.90;;;;;;5159931;27;20266;-80
2023/07/27 15:55:16;;;;;;;2.13;2.03;;;17.40;99.90;;;;;;5163101;27;20172;-80
2023/07/27 15:57:42;;;;;;;2.20;2.10;;;17.30;99.90;;;;;;5161964;27;20229;-80
2023/07/27 16:00:08;;;;;;;2.25;1.83;;;17.20;99.90;;;;;;5161578;27;20232;-80
2023/07/27 16:02:34;;;;;;;2.63;2.38;;;17.20;99.90;;;;;;5143919;27;20203;-80
2023/07/27 16:04:59;;;;;;;2.30;2.20;;;17.10;99.90;;;;;;5160362;27;20195;-80
2023/07/27 16:07:25;;;;;;;2.92;2.38;;;17.10;99.90;;;;;;5160462;27;20192;-80
2023/07/27 16:09:58;;;;;;;2.47;2.28;;;17.20;99.90;;;;;;5160482;27;20192;-80
2023/07/27 16:12:24;;;;;;;2.10;1.90;;;17.30;99.90;;;;;;5143333;27;20181;-80
2023/07/27 16:14:51;;;;;;;2.10;1.90;;;17.30;99.90;;;;;;5143453;27;20171;-80
2023/07/27 16:17:17;;;;;;;2.17;1.90;;;17.30;99.90;;;;;;5143612;28;20199;-80
2023/07/27 16:19:42;;;;;;;2.00;1.90;;;17.20;99.90;;;;;;5161256;27;20174;-80
2023/07/27 16:22:08;;;;;;;1.95;1.85;;;17.20;99.90;;;;;;5160278;27;20190;-80
2023/07/27 16:24:35;;;;;;;2.05;1.95;;;17.20;99.90;;;;;;5143715;27;20176;-80
2023/07/27 16:27:00;;;;;;;3.00;2.30;;;17.20;99.90;;;;;;5159671;27;20195;-80
2023/07/27 16:29:26;;;;;;;1.92;1.83;;;17.20;99.90;;;;;;5160922;27;20259;-80
2023/07/27 16:31:52;;;;;;;2.30;1.80;;;17.20;99.90;;;;;;5159720;27;20581;-80
2023/07/27 16:34:18;;;;;;;4.40;2.20;;;17.30;99.90;;;;;;5163169;27;20213;-80
2023/07/27 16:36:44;;;;;;;2.20;2.10;;;17.30;99.90;;;;;;5165812;27;20191;-80
2023/07/27 16:39:11;;;;;;;1.88;1.77;;;17.20;99.90;;;;;;5146389;27;20172;-80
2023/07/27 16:41:37;;;;;;;3.40;2.10;;;17.20;99.90;;;;;;5166423;27;20206;-80
2023/07/27 16:44:02;;;;;;;2.40;2.20;;;17.20;99.90;;;;;;5163614;27;20183;-80
2023/07/27 16:46:28;;;;;;;2.20;2.10;;;17.30;99.90;;;;;;5165181;27;20222;-80
2023/07/27 16:48:54;;;;;;;2.33;2.10;;;17.30;99.90;;;;;;5166178;27;20186;-80
2023/07/27 16:51:19;;;;;;;2.80;1.88;;;17.30;99.90;;;;;;5163936;27;20247;-80
2023/07/27 16:53:45;;;;;;;2.00;1.77;;;17.30;99.90;;;;;;5164897;27;20521;-80
2023/07/27 16:56:11;;;;;;;2.00;1.90;;;17.30;99.90;;;;;;5165112;27;20204;-80
2023/07/27 16:58:37;;;;;;;2.97;1.80;;;17.30;99.90;;;;;;5166070;27;20547;-80
2023/07/27 17:01:16;;;;;;;2.20;2.00;;;17.20;99.90;;;;;;5148110;27;20175;-80
2023/07/27 17:03:42;;;;;;;2.38;2.05;;;17.20;99.90;;;;;;5148388;27;20164;-80
2023/07/27 17:06:09;;;;;;;5.03;2.15;;;17.20;99.90;;;;;;5163380;27;20202;-79
2023/07/27 17:08:35;;;;;;;2.10;2.00;;;17.20;99.90;;;;;;5149321;27;20637;-79
2023/07/27 17:11:01;;;;;;;2.30;2.20;;;17.10;99.90;;;;;;5166105;27;20184;-79
2023/07/27 17:13:27;;;;;;;2.53;2.40;;;17.10;99.90;;;;;;5166689;27;20183;-80
2023/07/27 17:16:01;;;;;;;2.72;2.53;;;17.10;99.90;;;;;;5166308;27;20214;-79
2023/07/27 17:18:27;;;;;;;3.92;2.35;;;17.00;99.90;;;;;;5150516;27;20203;-79
2023/07/27 17:20:53;;;;;;;3.00;2.80;;;17.00;99.90;;;;;;5168454;27;20662;-80
2023/07/27 17:23:19;;;;;;;3.47;3.17;;;17.00;99.90;;;;;;5167902;27;20185;-79
2023/07/27 17:25:45;;;;;;;3.80;3.30;;;16.90;99.90;;;;;;5168080;27;20191;-80
2023/07/27 17:28:10;;;;;;;4.18;3.40;;;16.90;99.90;;;;;;5167668;27;20183;-80
2023/07/27 17:30:36;;;;;;;3.35;3.05;;;16.90;99.90;;;;;;5169805;27;20171;-80
2023/07/27 17:33:01;;;;;;;3.40;3.10;;;16.90;99.90;;;;;;5168706;27;20191;-80
2023/07/27 17:35:27;;;;;;;4.55;3.40;;;16.90;99.90;;;;;;5167898;27;20195;-80
2023/07/27 17:37:53;;;;;;;4.53;3.42;;;16.90;99.90;;;;;;5167830;27;20221;-80
2023/07/27 17:40:18;;;;;;;4.70;3.30;;;16.90;99.90;;;;;;5167142;27;20176;-79
2023/07/27 17:42:44;;;;;;;3.83;3.47;;;16.90;99.90;;;;;;5167332;27;20182;-80
2023/07/27 17:45:09;;;;;;;4.05;3.65;;;16.80;99.90;;;;;;5166671;27;20255;-80
2023/07/27 17:47:35;;;;;;;4.50;3.90;;;16.80;99.90;;;;;;5166808;27;20219;-79
2023/07/27 17:50:01;;;;;;;3.83;3.47;;;16.90;99.90;;;;;;5165124;27;20207;-78
2023/07/27 17:52:26;;;;;;;4.28;3.95;;;16.90;99.90;;;;;;5165444;27;20210;-79
2023/07/27 17:54:52;;;;;;;4.95;4.28;;;16.90;99.90;;;;;;5166339;27;20183;-79
2023/07/27 17:57:18;;;;;;;4.70;4.30;;;16.80;99.90;;;;;;5165509;27;20206;-80
2023/07/27 17:59:43;;;;;;;4.20;3.83;;;16.80;99.90;;;;;;5165502;27;20216;-80
2023/07/27 18:02:12;;;;;;;4.60;4.30;;;16.80;99.90;;;;;;5166234;27;20171;-79
2023/07/27 18:04:37;;;;;;;4.47;4.07;;;16.80;99.90;;;;;;5166711;27;20162;-80
2023/07/27 18:07:03;;;;;;;6.30;4.20;;;16.80;99.90;;;;;;5165122;27;20665;-80
2023/07/27 18:09:29;;;;;;;4.43;4.03;;;16.80;99.90;;;;;;5166698;27;20530;-80
2023/07/27 18:11:54;;;;;;;4.05;3.83;;;16.80;99.90;;;;;;5166047;27;20243;-80
2023/07/27 18:14:46;;;;;;;5.45;4.32;;;16.80;99.90;;;;;;5162170;27;20236;-80
2023/07/27 18:17:13;;;;;;;4.72;4.00;;;16.80;99.90;;;;;;5160895;27;20203;-82
2023/07/27 18:19:40;;;;;;;4.50;4.10;;;16.80;99.90;;;;;;5161464;27;20166;-82
2023/07/27 18:22:06;;;;;;;6.93;4.30;;;16.70;99.90;;;;;;5145448;27;20168;-82
2023/07/27 18:24:33;;;;;;;4.80;4.30;;;16.80;99.90;;;;;;5161541;27;20179;-82
2023/07/27 18:26:59;;;;;;;4.70;4.30;;;16.70;99.90;;;;;;5161017;27;20199;-81
2023/07/27 18:29:24;;;;;;;4.57;4.18;;;16.70;99.90;;;;;;5161468;27;20186;-82
2023/07/27 18:31:50;;;;;;;4.75;4.20;;;16.80;99.90;;;;;;5160865;27;20269;-82
2023/07/27 18:34:16;;;;;;;4.95;4.35;;;16.70;99.90;;;;;;5160908;27;20182;-82
2023/07/27 18:36:43;;;;;;;4.97;4.57;;;16.70;99.90;;;;;;5161685;27;20241;-82
2023/07/27 18:39:08;;;;;;;5.93;4.80;;;16.70;99.90;;;;;;5161455;27;20540;-81
2023/07/27 18:41:34;;;;;;;5.72;4.95;;;16.70;99.90;;;;;;5161702;27;20231;-82
2023/07/27 18:43:59;;;;;;;5.30;4.65;;;16.70;99.90;;;;;;5162508;27;20187;-83
2023/07/27 18:46:27;;;;;;;5.55;4.75;;;16.70;99.90;;;;;;5161472;27;20213;-83
2023/07/27 18:48:53;;;;;;;5.43;4.93;;;16.70;99.90;;;;;;5161544;27;20575;-82
2023/07/27 18:51:18;;;;;;;7.63;4.75;;;16.70;99.90;;;;;;5161156;27;20639;-82
2023/07/27 18:53:44;;;;;;;9.30;4.85;;;16.70;99.90;;;;;;5160079;27;20187;-81
2023/07/27 18:56:11;;;;;;;5.18;4.60;;;16.70;99.90;;;;;;5161375;27;20236;-81
2023/07/27 18:58:37;;;;;;;5.00;4.60;;;16.70;99.90;;;;;;5143867;27;20179;-81
2023/07/27 19:01:04;;;;;;;5.38;4.63;;;16.70;99.90;;;;;;5160843;27;20179;-81
2023/07/27 19:03:30;;;;;;;5.32;4.28;;;16.70;99.90;;;;;;5161665;27;20168;-81
2023/07/27 19:05:58;;;;;;;4.95;4.50;;;16.70;99.90;;;;;;5160950;27;20218;-81
2023/07/27 19:08:24;;;;;;;5.05;4.40;;;16.70;99.90;;;;;;5160148;27;20180;-81
2023/07/27 19:10:49;;;;;;;4.78;4.30;;;16.70;99.90;;;;;;5143969;27;20171;-81
2023/07/27 19:13:15;;;;;;;4.85;4.45;;;16.70;99.90;;;;;;5160638;27;20255;-81
2023/07/27 19:15:48;;;;;;;4.80;4.40;;;16.70;99.90;;;;;;5160629;27;20177;-81
2023/07/27 19:18:17;;;;;;;4.80;4.40;;;16.70;99.90;;;;;;5143859;27;20176;-81
2023/07/27 19:20:45;;;;;;;5.78;4.93;;;16.70;99.90;;;;;;5143736;27;20174;-81
2023/07/27 19:23:10;;;;;;;5.97;5.47;;;16.70;99.90;;;;;;5160315;27;20191;-81
2023/07/27 19:25:40;;;;;;;6.93;5.03;;;16.70;99.90;;;;;;5160260;27;20183;-81
2023/07/27 19:28:09;;;;;;;6.93;5.25;;;16.70;99.90;;;;;;5143445;27;20175;-81
2023/07/27 19:30:39;;;;;;;5.22;4.63;;;16.70;99.90;;;;;;5143220;27;20540;-81
2023/07/27 19:33:09;;;;;;;6.75;4.93;;;16.70;99.90;;;;;;5142908;27;20167;-81
2023/07/27 19:35:36;;;;;;;5.55;5.05;;;16.70;99.90;;;;;;5142583;27;20313;-81
2023/07/27 19:38:03;;;;;;;5.72;5.22;;;16.70;99.90;;;;;;5141791;27;20199;-81
2023/07/27 19:40:29;;;;;;;6.72;5.15;;;16.70;99.90;;;;;;5143302;27;20228;-82
2023/07/27 19:42:54;;;;;;;8.00;5.00;;;16.70;99.90;;;;;;5143010;27;20172;-82
2023/07/27 19:45:20;;;;;;;8.75;5.28;;;16.70;99.90;;;;;;5160892;27;20168;-81
2023/07/27 19:47:46;;;;;;;6.00;5.40;;;16.70;99.90;;;;;;5159369;27;20218;-81
2023/07/27 19:50:12;;;;;;;5.65;5.15;;;16.70;99.90;;;;;;5143128;27;20183;-81
2023/07/27 19:52:37;;;;;;;6.10;5.55;;;16.70;99.90;;;;;;5159289;27;20176;-81
2023/07/27 19:55:06;;;;;;;6.03;5.43;;;16.70;99.90;;;;;;5158944;27;20190;-81
2023/07/27 19:57:31;;;;;;;7.53;5.35;;;16.70;99.90;;;;;;5142622;27;20207;-81
2023/07/27 19:59:57;;;;;;;6.03;5.30;;;16.70;99.90;;;;;;5160790;27;20270;-82
2023/07/27 20:02:24;;;;;;;5.50;5.00;;;16.70;99.90;;;;;;5160331;27;20171;-81
2023/07/27 20:04:50;;;;;;;5.63;5.18;;;16.60;99.90;;;;;;5143410;27;20171;-81
2023/07/27 20:07:16;;;;;;;5.40;5.00;;;16.70;99.90;;;;;;5142157;27;20199;-82
2023/07/27 20:09:42;;;;;;;5.60;5.10;;;16.70;99.90;;;;;;5145985;27;20181;-81
2023/07/27 20:12:10;;;;;;;8.43;5.28;;;16.70;99.90;;;;;;5163616;27;20274;-81
2023/07/27 20:14:35;;;;;;;8.95;5.03;;;16.70;99.90;;;;;;5163630;27;20224;-81
2023/07/27 20:17:01;;;;;;;5.65;5.15;;;16.70;99.90;;;;;;5163662;27;20610;-81
2023/07/27 20:19:28;;;;;;;5.53;5.03;;;16.70;99.90;;;;;;5146901;27;20183;-81
2023/07/27 20:21:55;;;;;;;7.15;5.60;;;16.70;99.90;;;;;;5146743;27;20172;-81
2023/07/27 20:24:20;;;;;;;6.22;5.72;;;16.70;99.90;;;;;;5146012;27;20172;-81
2023/07/27 20:26:49;;;;;;;6.80;5.30;;;16.70;99.90;;;;;;5163133;27;20191;-81
2023/07/27 20:29:15;;;;;;;5.72;5.22;;;16.70;99.90;;;;;;5163308;27;20188;-81
2023/07/27 20:31:41;;;;;;;5.65;5.15;;;16.80;99.90;;;;;;5163283;27;20559;-82
2023/07/27 20:34:12;;;;;;;5.15;4.72;;;16.70;99.90;;;;;;5162898;27;20205;-81
2023/07/27 20:36:37;;;;;;;4.95;4.63;;;16.70;99.90;;;;;;5163590;27;20250;-81
2023/07/27 20:39:03;;;;;;;5.82;4.93;;;16.80;99.90;;;;;;5163719;27;20171;-81
2023/07/27 20:41:28;;;;;;;4.97;4.68;;;16.80;99.90;;;;;;5163042;27;20253;-82
2023/07/27 20:43:54;;;;;;;5.20;4.75;;;16.80;99.90;;;;;;5162754;27;20186;-81
2023/07/27 20:46:20;;;;;;;4.72;4.32;;;16.80;99.90;;;;;;5162637;27;20219;-82
2023/07/27 20:48:47;;;;;;;5.57;5.07;;;16.80;99.90;;;;;;5145146;27;20184;-82
2023/07/27 20:51:13;;;;;;;5.95;4.65;;;16.80;99.90;;;;;;5162722;27;20591;-82
2023/07/27 20:53:39;;;;;;;9.18;5.10;;;16.70;99.90;;;;;;5144896;27;20649;-84
2023/07/27 20:56:16;;;;;;;5.85;4.85;;;16.70;99.90;;;;;;5164060;27;20215;-81
2023/07/27 20:58:43;;;;;;;6.38;5.78;;;16.80;99.90;;;;;;5147949;27;20652;-81
2023/07/27 21:01:10;;;;;;;5.72;5.18;;;16.70;99.90;;;;;;5146827;27;20172;-81
2023/07/27 21:03:36;;;;;;;5.18;4.68;;;16.70;99.90;;;;;;5151266;27;20178;-80
2023/07/27 21:06:03;;;;;;;5.07;4.57;;;16.70;99.90;;;;;;5155522;27;20195;-80
2023/07/27 21:08:34;;;;;;;5.03;4.65;;;16.70;99.90;;;;;;5156987;27;20316;-84
2023/07/27 21:11:00;;;;;;;6.70;4.68;;;16.70;99.90;;;;;;5161471;27;20176;-81
2023/07/27 21:13:26;;;;;;;6.18;4.90;;;16.70;99.90;;;;;;5161390;27;20168;-82
2023/07/27 21:16:05;;;;;;;5.57;5.07;;;16.70;99.90;;;;;;5178137;27;20180;-82
2023/07/27 21:18:31;;;;;;;5.03;4.60;;;16.70;99.90;;;;;;5161397;27;20160;-80
2023/07/27 21:20:57;;;;;;;4.65;4.20;;;16.70;99.90;;;;;;5162044;27;20152;-81
2023/07/27 21:23:23;;;;;;;4.78;4.38;;;16.70;99.90;;;;;;5178975;27;20175;-81
2023/07/27 21:25:57;;;;;;;4.82;3.88;;;16.70;99.90;;;;;;5161757;27;20176;-82
2023/07/27 21:28:23;;;;;;;5.05;4.18;;;16.70;99.90;;;;;;5159408;27;20167;-81
2023/07/27 21:30:52;;;;;;;4.03;3.72;;;16.70;99.90;;;;;;5171559;27;20210;-81
2023/07/27 21:33:17;;;;;;;4.10;3.70;;;16.70;99.90;;;;;;5153816;27;20182;-81
2023/07/27 21:35:43;;;;;;;5.38;3.70;;;16.60;99.90;;;;;;5170561;27;20179;-82
2023/07/27 21:38:08;;;;;;;4.13;3.72;;;16.70;99.90;;;;;;5171004;27;20163;-81
2023/07/27 21:40:35;;;;;;;3.95;3.65;;;16.60;99.90;;;;;;5170328;27;20197;-81
2023/07/27 21:43:00;;;;;;;4.53;3.70;;;16.60;99.90;;;;;;5170568;27;20196;-82
2023/07/27 21:45:26;;;;;;;4.07;3.70;;;16.60;99.90;;;;;;5170459;27;20200;-81
2023/07/27 21:47:51;;;;;;;3.90;3.60;;;16.60;99.90;;;;;;5169182;27;20207;-81
2023/07/27 21:50:17;;;;;;;3.95;3.55;;;16.60;99.90;;;;;;5169552;27;20606;-81
2023/07/27 21:52:43;;;;;;;5.78;3.53;;;16.60;99.90;;;;;;5169514;27;20187;-81
2023/07/27 21:55:08;;;;;;;5.65;3.72;;;16.60;99.90;;;;;;5169428;27;20183;-81
2023/07/27 21:57:34;;;;;;;4.20;3.83;;;16.60;99.90;;;;;;5169129;27;20270;-81
2023/07/27 21:59:59;;;;;;;5.32;4.00;;;16.60;99.90;;;;;;5168458;27;20191;-81
2023/07/27 22:02:25;;;;;;;3.75;3.22;;;16.60;99.90;;;;;;5169429;27;20246;-81
2023/07/27 22:04:50;;;;;;;3.92;3.60;;;16.60;99.90;;;;;;5168410;27;20175;-81
2023/07/27 22:07:16;;;;;;;3.90;3.50;;;16.60;99.90;;;;;;5168746;27;20274;-81
2023/07/27 22:09:43;;;;;;;3.63;3.33;;;16.50;99.90;;;;;;5168706;27;20172;-81
2023/07/27 22:12:09;;;;;;;3.55;3.35;;;16.50;99.90;;;;;;5151573;27;20175;-81
2023/07/27 22:14:34;;;;;;;3.38;3.17;;;16.50;99.90;;;;;;5167728;27;20178;-81
2023/07/27 22:17:00;;;;;;;4.55;3.35;;;16.60;99.90;;;;;;5167376;27;20609;-82
2023/07/27 22:19:25;;;;;;;3.60;3.38;;;16.60;99.90;;;;;;5167763;27;20189;-81
2023/07/27 22:21:51;;;;;;;4.13;3.72;;;16.60;99.90;;;;;;5167253;27;20186;-81
2023/07/27 22:24:16;;;;;;;6.22;3.65;;;16.60;99.90;;;;;;5166568;27;20174;-81
2023/07/27 22:26:42;;;;;;;3.85;3.50;;;16.60;99.90;;;;;;5166818;27;20225;-81
2023/07/27 22:29:08;;;;;;;6.15;3.65;;;16.60;99.90;;;;;;5167034;27;20183;-81
2023/07/27 22:31:33;;;;;;;5.18;3.97;;;16.60;99.90;;;;;;5165871;27;20201;-81
2023/07/27 22:33:59;;;;;;;3.72;3.40;;;16.50;99.90;;;;;;5149499;27;20175;-81
2023/07/27 22:36:24;;;;;;;4.10;3.70;;;16.60;99.90;;;;;;5166290;27;20199;-81
2023/07/27 22:38:50;;;;;;;3.35;3.13;;;16.60;99.90;;;;;;5167103;27;20191;-81
2023/07/27 22:41:15;;;;;;;3.58;3.28;;;16.60;99.90;;;;;;5165766;27;20198;-81
2023/07/27 22:43:41;;;;;;;4.35;3.20;;;16.60;99.90;;;;;;5165905;27;20272;-81
2023/07/27 22:46:07;;;;;;;3.20;3.00;;;16.60;99.90;;;;;;5165746;27;20221;-81
2023/07/27 22:48:32;;;;;;;3.25;2.95;;;16.60;99.90;;;;;;5166162;27;20243;-81
2023/07/27 22:50:58;;;;;;;3.08;2.80;;;16.60;99.90;;;;;;5165035;27;20175;-83
2023/07/27 22:53:23;;;;;;;3.13;2.83;;;16.60;99.90;;;;;;5165285;27;20179;-81
2023/07/27 22:55:50;;;;;;;3.13;2.90;;;16.60;99.90;;;;;;5165546;27;20281;-81
2023/07/27 22:58:16;;;;;;;3.10;2.83;;;16.60;99.90;;;;;;5147970;27;20638;-81
2023/07/27 23:00:42;;;;;;;2.80;2.60;;;16.60;99.90;;;;;;5146797;27;20201;-81
2023/07/27 23:03:08;;;;;;;2.75;2.65;;;16.60;99.90;;;;;;5165535;27;20168;-82
2023/07/27 23:05:35;;;;;;;3.63;3.10;;;16.60;99.90;;;;;;5146979;27;20575;-81
2023/07/27 23:08:03;;;;;;;3.00;2.80;;;16.60;99.90;;;;;;5147438;27;20598;-82
2023/07/27 23:10:29;;;;;;;2.83;2.63;;;16.60;99.90;;;;;;5148390;27;20541;-81
2023/07/27 23:12:55;;;;;;;3.15;2.85;;;16.60;99.90;;;;;;5148403;27;20295;-81
2023/07/27 23:15:21;;;;;;;3.13;2.85;;;16.60;99.90;;;;;;5165104;27;20637;-81
2023/07/27 23:17:46;;;;;;;3.25;2.70;;;16.60;99.90;;;;;;5147589;27;20204;-81
2023/07/27 23:20:13;;;;;;;2.60;2.50;;;16.60;99.90;;;;;;5165040;27;20620;-82
2023/07/27 23:22:38;;;;;;;3.08;2.88;;;16.60;99.90;;;;;;5164464;27;20178;-82
2023/07/27 23:25:05;;;;;;;2.85;2.65;;;16.60;99.90;;;;;;5164554;27;20176;-81
2023/07/27 23:27:31;;;;;;;3.33;3.03;;;16.60;99.90;;;;;;5147391;27;20256;-82
2023/07/27 23:29:57;;;;;;;2.80;2.60;;;16.60;99.90;;;;;;5164491;27;20582;-82
2023/07/27 23:32:22;;;;;;;3.00;2.80;;;16.60;99.90;;;;;;5164087;27;20266;-83
2023/07/27 23:34:48;;;;;;;3.97;2.70;;;16.60;99.90;;;;;;5164013;27;20176;-82
2023/07/27 23:37:14;;;;;;;3.00;2.80;;;16.60;99.90;;;;;;5164113;27;20221;-82
2023/07/27 23:39:39;;;;;;;3.03;2.83;;;16.60;99.90;;;;;;5164142;27;20200;-82
2023/07/27 23:42:05;;;;;;;4.10;2.90;;;16.60;99.90;;;;;;5163695;27;20171;-82
2023/07/27 23:44:31;;;;;;;2.92;2.60;;;16.70;99.90;;;;;;5146697;27;20183;-82
2023/07/27 23:46:56;;;;;;;3.28;2.92;;;16.60;99.90;;;;;;5163523;27;20244;-81
2023/07/27 23:49:22;;;;;;;3.33;3.13;;;16.60;99.90;;;;;;5164002;27;20243;-82
2023/07/27 23:51:48;;;;;;;3.30;3.00;;;16.60;99.90;;;;;;5163190;27;20201;-82
2023/07/27 23:54:13;;;;;;;3.25;2.88;;;16.60;99.90;;;;;;5163913;27;20179;-81
2023/07/27 23:56:39;;;;;;;2.88;2.75;;;16.60;99.90;;;;;;5162972;27;20210;-82
2023/07/27 23:59:04;;;;;;;4.18;2.97;;;16.70;99.90;;;;;;5163062;27;20177;-82
